• Join FlightAware (Why Join?)
  • Login
  • US Flag 
12:23AM EDT


 

Airport Tracker/Info


-or-


 

Live Flight TrackerFlight Track Log ✈ TPA702 ✈ 13-Jul-2013 ✈ SKRG / MDE - KMIA

Flight Track Log - Related Links

Times and Time Zones

All times are in EDT time to prevent confusion due to time zone crossing. See the TPA702 flight status page for this flight to view local times or setup timezone preferences in your user account.

Time Position Orientation Groundspeed Altitude Reporting Facility
EDT Latitude Longitude Course Direction KTS MPH feet Rate Location/Type
12:39PM 8.3151 -75.9167 347° North  Level Estimated
12:40PM 8.4300 -75.9432 347° North  Level Estimated
12:41PM 8.5449 -75.9698 347° North  Level Estimated
12:41PM 23.2392 -78.8714 347° North 472 543 40,000  Level Miami Center
12:42PM 8.6597 -75.9963 347° North  Level Estimated
12:42PM 23.3664 -78.9028 347° North 477 549 40,000  Level Miami Center
12:43PM 8.7746 -76.0229 347° North  Level Estimated
12:43PM 23.4975 -78.9411 345° North 472 543 40,000  Level Miami Center
12:44PM 8.8895 -76.0495 347° North  Level Estimated
12:44PM 23.6222 -78.9725 347° North 465 535 40,000  Level Miami Center
12:45PM 9.0044 -76.0760 347° North  Level Estimated
12:45PM 23.7514 -79.0086 346° North 465 535 40,000  Level Miami Center
12:46PM 9.1192 -76.1027 347° North  Level Estimated
12:46PM 23.8700 -79.0356 348° North 460 529 40,000  Level Miami Center
12:47PM 9.2341 -76.1293 347° North  Level Estimated
12:47PM 24.0053 -79.0722 346° North 467 537 40,000  Level Miami Center
12:48PM 24.1325 -79.0881 354° North 467 537 40,000 -600 Level Miami Center
12:49PM 24.2639 -79.1064 353° North 462 532 38,800 -1,620 Descending Miami Center
12:50PM 24.3867 -79.1542 340° North 471 542 36,800 -2,100 Descending Miami Center
12:51PM 24.5172 -79.2158 337° Northwest 460 529 34,700 -2,400 Descending Miami Center
12:52PM 24.6139 -79.3136 317° Northwest 479 551 32,000 -2,220 Descending Miami Center
12:53PM 24.6936 -79.4206 309° West 467 537 30,300 -2,580 Descending Miami Center
12:59PM 25.2260 -79.7130 309° West 360 414 16,000 -2,520 Descending FlightAware
12:59PM 25.2910 -79.7190 355° North 327 376 15,200 -900 Descending FlightAware
01:00PM 25.3370 -79.7240 354° North 324 373 14,900 -240 Descending FlightAware
01:01PM 25.3980 -79.7310 354° North 324 373 14,900  Level FlightAware
01:01PM 25.4450 -79.7370 353° North 324 373 14,900 -1,740 Level FlightAware
01:03PM 25.5750 -79.7050 13° North 304 350 10,900 -2,220 Descending FlightAware
01:04PM 25.5940 -79.7640 290° West 297 342 9,600 -2,040 Descending FlightAware
01:04PM 25.6020 -79.7860 292° West 294 338 9,000 -2,160 Descending FlightAware
01:05PM 25.6170 -79.8200 296° West 284 327 8,100 -2,280 Descending FlightAware
01:05PM 25.6300 -79.8400 306° West 286 329 7,400 -2,520 Descending FlightAware
01:05PM 25.6510 -79.8700 308° West 283 326 6,300 -2,400 Descending FlightAware
01:06PM 25.6720 -79.8990 309° West 278 320 5,300 -2,400 Descending FlightAware
01:06PM 25.6830 -79.9150 307° West 278 320 4,700 -2,280 Descending FlightAware
01:06PM 25.7040 -79.9450 308° West 269 310 3,800 -1,620 Descending FlightAware
01:07PM 25.7160 -79.9610 310° West 253 291 3,600 -720 Descending FlightAware
01:07PM 25.7360 -79.9890 308° West 229 264 3,300 -600 Descending FlightAware
01:07PM 25.7410 -80.0050 289° West 211 243 3,200 -480 Descending FlightAware
01:08PM 25.7430 -80.0170 280° West 200 230 3,100 -540 Descending FlightAware
01:08PM 25.7440 -80.0410 273° West 188 216 2,900 -300 Descending FlightAware
01:08PM 25.7470 -80.0630 279° West 186 214 2,900  Level FlightAware
01:09PM 25.7610 -80.0840 307° West 184 212 2,900 -300 Level FlightAware
01:09PM 25.7710 -80.0990 307° West 182 209 2,700 -600 Descending FlightAware
01:10PM 25.7790 -80.1180 295° West 181 208 2,500 -540 Descending FlightAware
01:10PM 25.7870 -80.1380 294° West 179 206 2,300 -600 Descending FlightAware
01:10PM 25.7920 -80.1530 290° West 172 198 2,100 -660 Descending FlightAware
01:10PM 25.7930 -80.1610 278° West 161 185 2,000 -840 Descending FlightAware
01:11PM 25.7910 -80.1870 265° West 153 176 1,400 -900 Descending FlightAware
01:12PM 25.7900 -80.2150 268° West 150 173 1,000 -900 Descending FlightAware
01:12PM 25.7890 -80.2370 267° West 148 170 600 -840 Descending FlightAware
01:12PM 25.7890 -80.2540 270° West 150 173 300 -720 Descending FlightAware
01:13PM 25.7880 -80.2700 266° West 155 178 100 -600 Descending FlightAware
01:13PM 25.7870 -80.2910 267° West 125 144 -240 Descending FlightAware
01:14PM 25.7870 -80.3030 270° West 34 39  Level FlightAware
01:14PM 25.7900 -80.3050 329° Northwest 34 39  Level FlightAware
01:14PM 25.7890 -80.3040 138° Southeast 26 30  Level FlightAware
01:15PM 25.7880 -80.3050 222° Southwest 25 29  Level FlightAware
01:16PM 25.7900 -80.3060 336° Northwest 25 29  Level FlightAware
01:16PM 25.7910 -80.3060 360° North 20 23  Level FlightAware
01:18PM 25.7920 -80.3050 42° Northeast 2 2  Level FlightAware
01:21PM 25.7954 -80.2901 77° East  Level Estimated